sensor_id;sensor_type;location;lat;lon;timestamp;pressure;altitude;pressure_sealevel;temperature;humidity
63907;BME280;50075;49.484;11.238;2022-11-15T00:01:18;97785.78;;;8.86;100.00
63907;BME280;50075;49.484;11.238;2022-11-15T00:03:43;97793.13;;;8.98;100.00
63907;BME280;50075;49.484;11.238;2022-11-15T00:06:09;97793.91;;;9.00;100.00
63907;BME280;50075;49.484;11.238;2022-11-15T00:08:34;97790.41;;;8.78;100.00
63907;BME280;50075;49.484;11.238;2022-11-15T00:11:01;97787.72;;;8.81;100.00
63907;BME280;50075;49.484;11.238;2022-11-15T00:13:27;97781.81;;;8.52;100.00
63907;BME280;50075;49.484;11.238;2022-11-15T00:15:52;97786.06;;;8.55;100.00
63907;BME280;50075;49.484;11.238;2022-11-15T00:18:21;97779.66;;;8.63;100.00
63907;BME280;50075;49.484;11.238;2022-11-15T00:20:46;97778.63;;;8.19;100.00
63907;BME280;50075;49.484;11.238;2022-11-15T00:23:12;97781.66;;;8.32;100.00
63907;BME280;50075;49.484;11.238;2022-11-15T00:25:37;97777.25;;;8.34;100.00
63907;BME280;50075;49.484;11.238;2022-11-15T00:28:03;97778.97;;;8.35;100.00
63907;BME280;50075;49.484;11.238;2022-11-15T00:30:28;97775.69;;;8.55;100.00
63907;BME280;50075;49.484;11.238;2022-11-15T00:32:54;97780.78;;;8.33;100.00
63907;BME280;50075;49.484;11.238;2022-11-15T00:35:20;97778.78;;;8.39;100.00
63907;BME280;50075;49.484;11.238;2022-11-15T00:37:46;97787.13;;;8.49;100.00
63907;BME280;50075;49.484;11.238;2022-11-15T00:40:12;97786.53;;;8.90;100.00
63907;BME280;50075;49.484;11.238;2022-11-15T00:42:38;97787.91;;;8.75;100.00
63907;BME280;50075;49.484;11.238;2022-11-15T00:45:04;97781.06;;;8.48;100.00
63907;BME280;50075;49.484;11.238;2022-11-15T00:47:30;97781.06;;;8.48;100.00
63907;BME280;50075;49.484;11.238;2022-11-15T00:49:55;97774.38;;;8.66;100.00
63907;BME280;50075;49.484;11.238;2022-11-15T00:52:20;97770.72;;;8.94;100.00
63907;BME280;50075;49.484;11.238;2022-11-15T00:54:46;97772.66;;;8.65;100.00
63907;BME280;50075;49.484;11.238;2022-11-15T00:57:11;97770.53;;;8.77;100.00
63907;BME280;50075;49.484;11.238;2022-11-15T00:59:36;97768.81;;;8.52;100.00
63907;BME280;50075;49.484;11.238;2022-11-15T01:02:02;97764.06;;;8.63;100.00
63907;BME280;50075;49.484;11.238;2022-11-15T01:04:27;97765.53;;;8.71;100.00
63907;BME280;50075;49.484;11.238;2022-11-15T01:06:53;97769.56;;;8.79;100.00
63907;BME280;50075;49.484;11.238;2022-11-15T01:09:18;97770.19;;;8.86;100.00
63907;BME280;50075;49.484;11.238;2022-11-15T01:11:44;97765.78;;;8.64;100.00
63907;BME280;50075;49.484;11.238;2022-11-15T01:14:09;97772.78;;;8.62;100.00
63907;BME280;50075;49.484;11.238;2022-11-15T01:16:34;97758.38;;;8.54;100.00
63907;BME280;50075;49.484;11.238;2022-11-15T01:19:00;97759.44;;;8.48;100.00
63907;BME280;50075;49.484;11.238;2022-11-15T01:21:25;97760.34;;;8.47;100.00
63907;BME280;50075;49.484;11.238;2022-11-15T01:23:55;97768.25;;;8.44;100.00
63907;BME280;50075;49.484;11.238;2022-11-15T01:26:21;97761.13;;;8.49;100.00
63907;BME280;50075;49.484;11.238;2022-11-15T01:28:47;97753.50;;;8.44;100.00
63907;BME280;50075;49.484;11.238;2022-11-15T01:31:20;97756.34;;;8.37;100.00
63907;BME280;50075;49.484;11.238;2022-11-15T01:33:47;97750.06;;;7.94;100.00
63907;BME280;50075;49.484;11.238;2022-11-15T01:36:16;97746.41;;;7.99;100.00
63907;BME280;50075;49.484;11.238;2022-11-15T01:38:42;97752.22;;;8.31;100.00
63907;BME280;50075;49.484;11.238;2022-11-15T01:41:19;97752.88;;;8.13;100.00
63907;BME280;50075;49.484;11.238;2022-11-15T01:43:49;97751.59;;;8.24;100.00
63907;BME280;50075;49.484;11.238;2022-11-15T01:46:34;97746.19;;;7.80;100.00
63907;BME280;50075;49.484;11.238;2022-11-15T01:49:05;97740.09;;;8.06;100.00
63907;BME280;50075;49.484;11.238;2022-11-15T01:51:35;97732.63;;;8.22;100.00
63907;BME280;50075;49.484;11.238;2022-11-15T01:54:05;97734.63;;;8.14;100.00
63907;BME280;50075;49.484;11.238;2022-11-15T01:56:37;97738.88;;;7.91;100.00
63907;BME280;50075;49.484;11.238;2022-11-15T01:59:07;97732.97;;;8.37;100.00
63907;BME280;50075;49.484;11.238;2022-11-15T02:01:34;97729.34;;;8.41;100.00
63907;BME280;50075;49.484;11.238;2022-11-15T02:04:21;97722.44;;;8.16;100.00
63907;BME280;50075;49.484;11.238;2022-11-15T02:06:49;97719.16;;;8.11;100.00
63907;BME280;50075;49.484;11.238;2022-11-15T02:09:14;97713.34;;;8.28;100.00
63907;BME280;50075;49.484;11.238;2022-11-15T02:11:40;97709.84;;;8.05;100.00
63907;BME280;50075;49.484;11.238;2022-11-15T02:14:07;97701.97;;;7.57;100.00
63907;BME280;50075;49.484;11.238;2022-11-15T02:16:47;97697.09;;;7.47;100.00
63907;BME280;50075;49.484;11.238;2022-11-15T02:33:56;97682.78;;;8.11;100.00
63907;BME280;50075;49.484;11.238;2022-11-15T02:42:03;97667.19;;;7.62;100.00
63907;BME280;50075;49.484;11.238;2022-11-15T02:44:39;97669.25;;;8.50;100.00
63907;BME280;50075;49.484;11.238;2022-11-15T02:47:09;97666.72;;;8.48;100.00
63907;BME280;50075;49.484;11.238;2022-11-15T02:49:43;97667.94;;;8.62;100.00
63907;BME280;50075;49.484;11.238;2022-11-15T02:52:17;97669.75;;;8.82;100.00
63907;BME280;50075;49.484;11.238;2022-11-15T02:54:53;97662.88;;;8.81;100.00
63907;BME280;50075;49.484;11.238;2022-11-15T02:57:25;97665.13;;;8.44;100.00
63907;BME280;50075;49.484;11.238;2022-11-15T03:05:45;97648.00;;;8.15;100.00
63907;BME280;50075;49.484;11.238;2022-11-15T03:11:11;97644.78;;;7.60;100.00
63907;BME280;50075;49.484;11.238;2022-11-15T03:16:09;97625.63;;;6.85;100.00
63907;BME280;50075;49.484;11.238;2022-11-15T03:18:39;97628.38;;;7.07;100.00
63907;BME280;50075;49.484;11.238;2022-11-15T03:21:07;97629.22;;;7.60;100.00
63907;BME280;50075;49.484;11.238;2022-11-15T03:23:35;97625.47;;;7.68;100.00
63907;BME280;50075;49.484;11.238;2022-11-15T03:26:01;97623.47;;;7.75;100.00
63907;BME280;50075;49.484;11.238;2022-11-15T03:28:37;97624.72;;;7.65;100.00
63907;BME280;50075;49.484;11.238;2022-11-15T03:31:04;97624.88;;;6.82;100.00
63907;BME280;50075;49.484;11.238;2022-11-15T03:33:55;97616.47;;;7.02;100.00
63907;BME280;50075;49.484;11.238;2022-11-15T03:36:23;97624.75;;;7.38;100.00
63907;BME280;50075;49.484;11.238;2022-11-15T03:38:55;97629.00;;;7.66;100.00
63907;BME280;50075;49.484;11.238;2022-11-15T03:41:31;97625.81;;;7.58;100.00
63907;BME280;50075;49.484;11.238;2022-11-15T03:44:04;97625.94;;;7.55;100.00
63907;BME280;50075;49.484;11.238;2022-11-15T03:49:22;97623.28;;;7.31;100.00
63907;BME280;50075;49.484;11.238;2022-11-15T03:51:50;97617.75;;;7.40;100.00
63907;BME280;50075;49.484;11.238;2022-11-15T03:54:15;97614.25;;;7.16;100.00
63907;BME280;50075;49.484;11.238;2022-11-15T03:56:40;97610.53;;;6.98;100.00
63907;BME280;50075;49.484;11.238;2022-11-15T03:59:06;97603.75;;;6.94;100.00
63907;BME280;50075;49.484;11.238;2022-11-15T04:01:31;97610.91;;;7.39;100.00
63907;BME280;50075;49.484;11.238;2022-11-15T04:03:56;97605.00;;;7.34;100.00
63907;BME280;50075;49.484;11.238;2022-11-15T04:06:22;97602.25;;;7.64;100.00
63907;BME280;50075;49.484;11.238;2022-11-15T04:08:47;97608.91;;;7.71;100.00
63907;BME280;50075;49.484;11.238;2022-11-15T04:11:12;97595.09;;;7.45;100.00
63907;BME280;50075;49.484;11.238;2022-11-15T04:13:38;97601.63;;;7.81;100.00
63907;BME280;50075;49.484;11.238;2022-11-15T04:16:03;97597.84;;;7.66;100.00
63907;BME280;50075;49.484;11.238;2022-11-15T04:18:28;97601.09;;;7.47;100.00
63907;BME280;50075;49.484;11.238;2022-11-15T04:20:54;97593.75;;;7.59;100.00
63907;BME280;50075;49.484;11.238;2022-11-15T04:23:38;97603.72;;;7.71;100.00
63907;BME280;50075;49.484;11.238;2022-11-15T04:26:22;97614.47;;;8.33;100.00
63907;BME280;50075;49.484;11.238;2022-11-15T04:28:49;97612.06;;;7.30;100.00
63907;BME280;50075;49.484;11.238;2022-11-15T04:31:33;97599.63;;;6.88;100.00
63907;BME280;50075;49.484;11.238;2022-11-15T04:33:58;97599.66;;;6.60;100.00
63907;BME280;50075;49.484;11.238;2022-11-15T04:36:24;97600.88;;;6.77;100.00
63907;BME280;50075;49.484;11.238;2022-11-15T04:39:08;97599.69;;;6.85;100.00
63907;BME280;50075;49.484;11.238;2022-11-15T04:41:34;97599.41;;;6.94;100.00
63907;BME280;50075;49.484;11.238;2022-11-15T04:43:59;97595.72;;;7.02;100.00
63907;BME280;50075;49.484;11.238;2022-11-15T04:46:24;97601.44;;;6.85;100.00
63907;BME280;50075;49.484;11.238;2022-11-15T04:48:50;97602.81;;;6.97;100.00
63907;BME280;50075;49.484;11.238;2022-11-15T04:51:16;97601.16;;;6.94;100.00
63907;BME280;50075;49.484;11.238;2022-11-15T04:53:41;97599.84;;;7.07;100.00
63907;BME280;50075;49.484;11.238;2022-11-15T04:56:07;97601.56;;;7.08;100.00
63907;BME280;50075;49.484;11.238;2022-11-15T04:58:32;97605.38;;;7.23;100.00
63907;BME280;50075;49.484;11.238;2022-11-15T05:00:58;97600.16;;;6.98;100.00
63907;BME280;50075;49.484;11.238;2022-11-15T05:03:23;97590.66;;;6.99;100.00
63907;BME280;50075;49.484;11.238;2022-11-15T05:06:07;97585.09;;;6.83;100.00
63907;BME280;50075;49.484;11.238;2022-11-15T05:08:33;97584.06;;;6.88;100.00
63907;BME280;50075;49.484;11.238;2022-11-15T05:10:58;97585.94;;;7.10;100.00
63907;BME280;50075;49.484;11.238;2022-11-15T05:13:23;97591.09;;;6.58;100.00
63907;BME280;50075;49.484;11.238;2022-11-15T05:15:49;97581.69;;;6.54;100.00
63907;BME280;50075;49.484;11.238;2022-11-15T05:18:14;97579.84;;;6.86;100.00
63907;BME280;50075;49.484;11.238;2022-11-15T05:20:39;97580.38;;;6.95;100.00
63907;BME280;50075;49.484;11.238;2022-11-15T05:23:05;97571.63;;;6.45;100.00
63907;BME280;50075;49.484;11.238;2022-11-15T05:25:30;97570.66;;;6.75;100.00
63907;BME280;50075;49.484;11.238;2022-11-15T05:27:56;97570.16;;;6.64;100.00
63907;BME280;50075;49.484;11.238;2022-11-15T05:30:21;97583.47;;;6.80;100.00
63907;BME280;50075;49.484;11.238;2022-11-15T05:32:47;97573.38;;;6.16;100.00
63907;BME280;50075;49.484;11.238;2022-11-15T05:35:20;97571.03;;;6.36;100.00
63907;BME280;50075;49.484;11.238;2022-11-15T05:37:47;97567.44;;;6.41;100.00
63907;BME280;50075;49.484;11.238;2022-11-15T05:40:13;97570.81;;;6.43;100.00
63907;BME280;50075;49.484;11.238;2022-11-15T05:42:38;97568.38;;;6.38;100.00
63907;BME280;50075;49.484;11.238;2022-11-15T05:45:05;97564.28;;;6.31;100.00
63907;BME280;50075;49.484;11.238;2022-11-15T05:47:32;97569.72;;;6.50;100.00
63907;BME280;50075;49.484;11.238;2022-11-15T05:49:59;97563.16;;;6.66;100.00
63907;BME280;50075;49.484;11.238;2022-11-15T05:52:29;97569.56;;;6.83;100.00
63907;BME280;50075;49.484;11.238;2022-11-15T05:54:56;97565.50;;;6.74;100.00
63907;BME280;50075;49.484;11.238;2022-11-15T05:57:23;97571.00;;;6.65;100.00
63907;BME280;50075;49.484;11.238;2022-11-15T05:59:49;97573.59;;;6.65;100.00
63907;BME280;50075;49.484;11.238;2022-11-15T06:02:14;97570.44;;;6.55;100.00
63907;BME280;50075;49.484;11.238;2022-11-15T06:04:39;97567.41;;;6.69;100.00
63907;BME280;50075;49.484;11.238;2022-11-15T06:07:05;97571.53;;;6.74;100.00
63907;BME280;50075;49.484;11.238;2022-11-15T06:09:30;97572.84;;;6.88;100.00
63907;BME280;50075;49.484;11.238;2022-11-15T06:11:56;97575.88;;;6.74;100.00
63907;BME280;50075;49.484;11.238;2022-11-15T06:14:21;97573.75;;;6.60;100.00
63907;BME280;50075;49.484;11.238;2022-11-15T06:16:46;97579.22;;;6.51;100.00
63907;BME280;50075;49.484;11.238;2022-11-15T06:19:12;97583.19;;;6.34;100.00
63907;BME280;50075;49.484;11.238;2022-11-15T06:21:37;97581.66;;;6.55;100.00
63907;BME280;50075;49.484;11.238;2022-11-15T06:24:03;97579.25;;;6.76;100.00
63907;BME280;50075;49.484;11.238;2022-11-15T06:26:28;97575.41;;;6.61;100.00
63907;BME280;50075;49.484;11.238;2022-11-15T06:28:54;97576.84;;;6.43;100.00
63907;BME280;50075;49.484;11.238;2022-11-15T06:31:19;97584.06;;;6.62;100.00
63907;BME280;50075;49.484;11.238;2022-11-15T06:33:44;97580.00;;;6.53;100.00
63907;BME280;50075;49.484;11.238;2022-11-15T06:36:12;97587.28;;;6.68;100.00
63907;BME280;50075;49.484;11.238;2022-11-15T06:38:40;97583.16;;;6.63;100.00
63907;BME280;50075;49.484;11.238;2022-11-15T06:41:07;97585.41;;;6.73;100.00
63907;BME280;50075;49.484;11.238;2022-11-15T06:43:33;97582.97;;;6.41;100.00
63907;BME280;50075;49.484;11.238;2022-11-15T06:46:00;97588.44;;;6.31;100.00
63907;BME280;50075;49.484;11.238;2022-11-15T06:48:26;97581.09;;;6.46;100.00
63907;BME280;50075;49.484;11.238;2022-11-15T06:50:55;97580.59;;;6.61;100.00
63907;BME280;50075;49.484;11.238;2022-11-15T06:53:21;97573.63;;;6.63;100.00
63907;BME280;50075;49.484;11.238;2022-11-15T06:55:46;97573.84;;;6.84;100.00
63907;BME280;50075;49.484;11.238;2022-11-15T06:58:12;97579.84;;;6.31;100.00
63907;BME280;50075;49.484;11.238;2022-11-15T07:00:37;97577.41;;;5.96;100.00
63907;BME280;50075;49.484;11.238;2022-11-15T07:03:03;97573.38;;;6.16;100.00
63907;BME280;50075;49.484;11.238;2022-11-15T07:05:29;97574.97;;;6.20;100.00
63907;BME280;50075;49.484;11.238;2022-11-15T07:07:55;97575.84;;;6.49;100.00
63907;BME280;50075;49.484;11.238;2022-11-15T07:10:22;97576.19;;;7.17;100.00
63907;BME280;50075;49.484;11.238;2022-11-15T07:12:49;97574.66;;;8.30;100.00
63907;BME280;50075;49.484;11.238;2022-11-15T07:15:19;97574.22;;;8.87;100.00
63907;BME280;50075;49.484;11.238;2022-11-15T07:17:44;97569.81;;;11.01;100.00
63907;BME280;50075;49.484;11.238;2022-11-15T07:20:11;97579.19;;;12.07;100.00
63907;BME280;50075;49.484;11.238;2022-11-15T07:22:38;97588.81;;;12.70;100.00
63907;BME280;50075;49.484;11.238;2022-11-15T07:25:04;97594.78;;;13.93;100.00
63907;BME280;50075;49.484;11.238;2022-11-15T07:27:29;97604.59;;;14.04;100.00
63907;BME280;50075;49.484;11.238;2022-11-15T07:29:54;97603.31;;;14.53;100.00
63907;BME280;50075;49.484;11.238;2022-11-15T07:32:20;97606.34;;;14.46;100.00
63907;BME280;50075;49.484;11.238;2022-11-15T07:34:45;97599.44;;;14.17;100.00
63907;BME280;50075;49.484;11.238;2022-11-15T07:37:11;97603.97;;;11.49;100.00
63907;BME280;50075;49.484;11.238;2022-11-15T07:39:37;97599.13;;;12.41;100.00
63907;BME280;50075;49.484;11.238;2022-11-15T07:42:02;97594.22;;;10.83;100.00
63907;BME280;50075;49.484;11.238;2022-11-15T07:44:46;97593.22;;;11.20;100.00
63907;BME280;50075;49.484;11.238;2022-11-15T07:47:12;97584.09;;;9.81;100.00
63907;BME280;50075;49.484;11.238;2022-11-15T07:49:37;97580.72;;;9.98;100.00
63907;BME280;50075;49.484;11.238;2022-11-15T07:52:03;97578.03;;;10.00;100.00
63907;BME280;50075;49.484;11.238;2022-11-15T07:54:28;97572.06;;;9.58;100.00
63907;BME280;50075;49.484;11.238;2022-11-15T07:56:53;97572.59;;;9.46;100.00
63907;BME280;50075;49.484;11.238;2022-11-15T07:59:19;97564.31;;;9.57;100.00
63907;BME280;50075;49.484;11.238;2022-11-15T08:01:44;97561.97;;;9.71;100.00
63907;BME280;50075;49.484;11.238;2022-11-15T08:04:10;97558.69;;;9.66;100.00
63907;BME280;50075;49.484;11.238;2022-11-15T08:06:36;97549.59;;;9.76;100.00
63907;BME280;50075;49.484;11.238;2022-11-15T08:09:01;97551.53;;;9.90;100.00
63907;BME280;50075;49.484;11.238;2022-11-15T08:11:26;97544.66;;;10.08;100.00
63907;BME280;50075;49.484;11.238;2022-11-15T08:13:52;97549.09;;;9.48;100.00
63907;BME280;50075;49.484;11.238;2022-11-15T08:16:17;97541.75;;;10.14;100.00
63907;BME280;50075;49.484;11.238;2022-11-15T08:18:42;97537.53;;;10.12;100.00
63907;BME280;50075;49.484;11.238;2022-11-15T08:21:09;97532.19;;;10.34;100.00
63907;BME280;50075;49.484;11.238;2022-11-15T08:23:35;97530.69;;;9.90;100.00
63907;BME280;50075;49.484;11.238;2022-11-15T08:26:02;97539.31;;;10.84;100.00
63907;BME280;50075;49.484;11.238;2022-11-15T08:28:28;97541.13;;;11.52;100.00
63907;BME280;50075;49.484;11.238;2022-11-15T08:30:54;97529.75;;;9.93;100.00
63907;BME280;50075;49.484;11.238;2022-11-15T08:33:19;97528.66;;;10.89;100.00
63907;BME280;50075;49.484;11.238;2022-11-15T08:35:45;97525.50;;;10.82;100.00
63907;BME280;50075;49.484;11.238;2022-11-15T08:38:10;97527.34;;;11.15;100.00
63907;BME280;50075;49.484;11.238;2022-11-15T08:40:36;97523.97;;;11.13;100.00
63907;BME280;50075;49.484;11.238;2022-11-15T08:43:02;97518.22;;;11.57;100.00
63907;BME280;50075;49.484;11.238;2022-11-15T08:45:29;97517.66;;;12.01;100.00
63907;BME280;50075;49.484;11.238;2022-11-15T08:47:55;97522.72;;;12.04;100.00
63907;BME280;50075;49.484;11.238;2022-11-15T08:50:21;97520.38;;;12.78;100.00
63907;BME280;50075;49.484;11.238;2022-11-15T08:52:47;97526.22;;;12.67;100.00
63907;BME280;50075;49.484;11.238;2022-11-15T08:55:15;97523.22;;;12.73;100.00
63907;BME280;50075;49.484;11.238;2022-11-15T08:57:40;97517.75;;;13.22;100.00
63907;BME280;50075;49.484;11.238;2022-11-15T09:00:06;97516.22;;;13.04;100.00
63907;BME280;50075;49.484;11.238;2022-11-15T09:02:32;97518.44;;;12.96;100.00
63907;BME280;50075;49.484;11.238;2022-11-15T09:04:57;97516.78;;;13.82;100.00
63907;BME280;50075;49.484;11.238;2022-11-15T09:07:22;97512.84;;;13.90;100.00
63907;BME280;50075;49.484;11.238;2022-11-15T09:09:48;97508.53;;;13.31;100.00
63907;BME280;50075;49.484;11.238;2022-11-15T09:12:13;97502.59;;;13.13;100.00
63907;BME280;50075;49.484;11.238;2022-11-15T09:14:38;97503.88;;;13.36;100.00
63907;BME280;50075;49.484;11.238;2022-11-15T09:17:07;97505.00;;;14.17;100.00
63907;BME280;50075;49.484;11.238;2022-11-15T09:19:33;97508.38;;;14.19;100.00
63907;BME280;50075;49.484;11.238;2022-11-15T09:21:58;97504.00;;;14.46;100.00
63907;BME280;50075;49.484;11.238;2022-11-15T09:24:24;97510.19;;;14.04;100.00
63907;BME280;50075;49.484;11.238;2022-11-15T09:26:50;97499.44;;;13.94;100.00
63907;BME280;50075;49.484;11.238;2022-11-15T09:29:17;97505.00;;;14.17;100.00
63907;BME280;50075;49.484;11.238;2022-11-15T09:31:42;97495.97;;;14.35;100.00
63907;BME280;50075;49.484;11.238;2022-11-15T09:34:08;97499.38;;;14.23;100.00
63907;BME280;50075;49.484;11.238;2022-11-15T09:36:34;97506.03;;;14.96;100.00
63907;BME280;50075;49.484;11.238;2022-11-15T09:39:00;97503.81;;;14.77;100.00
63907;BME280;50075;49.484;11.238;2022-11-15T09:44:38;97495.03;;;14.91;100.00
63907;BME280;50075;49.484;11.238;2022-11-15T09:49:53;97486.13;;;15.57;100.00
63907;BME280;50075;49.484;11.238;2022-11-15T09:52:20;97490.19;;;15.87;100.00
63907;BME280;50075;49.484;11.238;2022-11-15T09:54:51;97486.84;;;15.85;100.00
63907;BME280;50075;49.484;11.238;2022-11-15T10:00:21;97481.41;;;16.12;100.00
63907;BME280;50075;49.484;11.238;2022-11-15T10:05:43;97463.72;;;16.38;100.00
63907;BME280;50075;49.484;11.238;2022-11-15T10:11:08;97452.38;;;16.73;99.33
63907;BME280;50075;49.484;11.238;2022-11-15T10:13:37;97459.88;;;16.31;95.53
63907;BME280;50075;49.484;11.238;2022-11-15T10:24:11;97450.47;;;17.11;83.09
63907;BME280;50075;49.484;11.238;2022-11-15T10:26:36;97446.84;;;16.89;81.44
63907;BME280;50075;49.484;11.238;2022-11-15T10:29:02;97441.59;;;16.41;80.98
63907;BME280;50075;49.484;11.238;2022-11-15T10:31:28;97434.59;;;16.53;80.51
63907;BME280;50075;49.484;11.238;2022-11-15T10:34:23;97424.22;;;16.98;80.29
63907;BME280;50075;49.484;11.238;2022-11-15T10:36:57;97431.91;;;17.12;78.54
63907;BME280;50075;49.484;11.238;2022-11-15T10:39:23;97420.66;;;16.75;77.99
63907;BME280;50075;49.484;11.238;2022-11-15T10:41:49;97419.19;;;16.95;79.69
63907;BME280;50075;49.484;11.238;2022-11-15T10:47:05;97415.84;;;16.93;78.54
63907;BME280;50075;49.484;11.238;2022-11-15T10:49:32;97406.97;;;16.94;77.42
63907;BME280;50075;49.484;11.238;2022-11-15T10:52:18;97396.69;;;17.25;76.70
63907;BME280;50075;49.484;11.238;2022-11-15T10:54:55;97403.13;;;16.87;76.56
63907;BME280;50075;49.484;11.238;2022-11-15T10:57:52;97392.41;;;17.46;77.05
63907;BME280;50075;49.484;11.238;2022-11-15T11:03:01;97387.72;;;17.61;76.36
63907;BME280;50075;49.484;11.238;2022-11-15T11:05:33;97385.56;;;17.21;75.62
63907;BME280;50075;49.484;11.238;2022-11-15T11:10:57;97369.50;;;17.36;76.53
63907;BME280;50075;49.484;11.238;2022-11-15T11:13:34;97383.03;;;17.42;75.60
63907;BME280;50075;49.484;11.238;2022-11-15T11:18:59;97372.00;;;17.14;76.42
63907;BME280;50075;49.484;11.238;2022-11-15T11:24:34;97369.31;;;17.94;74.69
63907;BME280;50075;49.484;11.238;2022-11-15T11:30:21;97362.38;;;17.81;72.94
63907;BME280;50075;49.484;11.238;2022-11-15T11:33:12;97364.16;;;18.03;73.54
63907;BME280;50075;49.484;11.238;2022-11-15T11:39:26;97349.34;;;17.68;72.27
63907;BME280;50075;49.484;11.238;2022-11-15T11:41:48;97341.97;;;17.83;72.64
63907;BME280;50075;49.484;11.238;2022-11-15T11:46:56;97336.59;;;17.73;72.73
63907;BME280;50075;49.484;11.238;2022-11-15T11:49:54;97336.13;;;17.91;71.92
63907;BME280;50075;49.484;11.238;2022-11-15T11:52:39;97331.78;;;17.35;71.89
63907;BME280;50075;49.484;11.238;2022-11-15T11:55:28;97324.91;;;17.44;73.44
63907;BME280;50075;49.484;11.238;2022-11-15T12:00:55;97322.88;;;17.47;73.08
63907;BME280;50075;49.484;11.238;2022-11-15T12:03:46;97313.91;;;17.27;72.91
63907;BME280;50075;49.484;11.238;2022-11-15T12:06:33;97306.63;;;17.20;74.81
63907;BME280;50075;49.484;11.238;2022-11-15T12:13:00;97307.31;;;17.33;75.33
63907;BME280;50075;49.484;11.238;2022-11-15T12:15:18;97297.41;;;17.69;74.45
63907;BME280;50075;49.484;11.238;2022-11-15T12:17:46;97302.31;;;17.85;73.52
63907;BME280;50075;49.484;11.238;2022-11-15T12:20:22;97306.50;;;17.76;73.78
63907;BME280;50075;49.484;11.238;2022-11-15T12:28:42;97298.13;;;18.15;79.07
63907;BME280;50075;49.484;11.238;2022-11-15T12:31:35;97295.19;;;17.97;72.52
63907;BME280;50075;49.484;11.238;2022-11-15T12:36:46;97294.19;;;18.09;71.33
63907;BME280;50075;49.484;11.238;2022-11-15T12:39:12;97290.75;;;17.97;70.96
63907;BME280;50075;49.484;11.238;2022-11-15T12:41:42;97290.47;;;17.68;71.98
63907;BME280;50075;49.484;11.238;2022-11-15T12:44:22;97283.19;;;17.60;72.00
63907;BME280;50075;49.484;11.238;2022-11-15T13:02:23;97264.78;;;17.81;70.24
63907;BME280;50075;49.484;11.238;2022-11-15T13:04:50;97269.34;;;17.90;69.64
63907;BME280;50075;49.484;11.238;2022-11-15T13:10:33;97258.03;;;18.42;67.83
63907;BME280;50075;49.484;11.238;2022-11-15T13:13:06;97260.53;;;18.22;67.58
63907;BME280;50075;49.484;11.238;2022-11-15T13:18:31;97258.03;;;19.03;72.28
63907;BME280;50075;49.484;11.238;2022-11-15T13:20:58;97258.56;;;18.66;74.72
63907;BME280;50075;49.484;11.238;2022-11-15T13:23:23;97256.78;;;18.46;76.14
63907;BME280;50075;49.484;11.238;2022-11-15T13:26:04;97254.00;;;18.26;76.01
63907;BME280;50075;49.484;11.238;2022-11-15T13:31:30;97253.56;;;19.04;70.67
63907;BME280;50075;49.484;11.238;2022-11-15T13:34:02;97245.00;;;19.12;68.17
63907;BME280;50075;49.484;11.238;2022-11-15T13:36:31;97234.84;;;19.17;67.03
63907;BME280;50075;49.484;11.238;2022-11-15T13:39:05;97236.72;;;19.45;81.20
63907;BME280;50075;49.484;11.238;2022-11-15T13:41:33;97239.25;;;18.97;91.99
63907;BME280;50075;49.484;11.238;2022-11-15T13:43:59;97229.06;;;18.92;75.91
63907;BME280;50075;49.484;11.238;2022-11-15T13:46:30;97235.31;;;18.91;73.24
63907;BME280;50075;49.484;11.238;2022-11-15T13:51:33;97228.78;;;18.34;72.59
63907;BME280;50075;49.484;11.238;2022-11-15T13:54:12;97221.63;;;18.24;73.58
63907;BME280;50075;49.484;11.238;2022-11-15T13:56:46;97217.47;;;18.22;72.30
63907;BME280;50075;49.484;11.238;2022-11-15T14:01:49;97209.09;;;18.78;77.72
63907;BME280;50075;49.484;11.238;2022-11-15T14:04:19;97203.97;;;18.77;72.09
63907;BME280;50075;49.484;11.238;2022-11-15T14:06:47;97190.78;;;18.46;71.11
63907;BME280;50075;49.484;11.238;2022-11-15T14:11:56;97191.19;;;18.20;72.97
63907;BME280;50075;49.484;11.238;2022-11-15T14:14:24;97184.53;;;17.63;75.62
63907;BME280;50075;49.484;11.238;2022-11-15T14:16:57;97182.56;;;17.76;78.25
63907;BME280;50075;49.484;11.238;2022-11-15T14:22:15;97176.06;;;17.80;79.11
63907;BME280;50075;49.484;11.238;2022-11-15T14:24:45;97176.72;;;17.94;98.17
63907;BME280;50075;49.484;11.238;2022-11-15T14:27:26;97179.81;;;17.99;100.00
63907;BME280;50075;49.484;11.238;2022-11-15T14:29:52;97163.97;;;18.50;100.00
63907;BME280;50075;49.484;11.238;2022-11-15T14:32:20;97171.94;;;18.08;100.00
63907;BME280;50075;49.484;11.238;2022-11-15T14:34:57;97178.66;;;18.13;100.00
63907;BME280;50075;49.484;11.238;2022-11-15T14:37:24;97175.94;;;17.82;100.00
63907;BME280;50075;49.484;11.238;2022-11-15T14:39:51;97178.28;;;17.64;100.00
63907;BME280;50075;49.484;11.238;2022-11-15T14:42:17;97175.34;;;17.78;100.00
63907;BME280;50075;49.484;11.238;2022-11-15T14:44:43;97168.22;;;17.90;100.00
63907;BME280;50075;49.484;11.238;2022-11-15T14:47:08;97166.81;;;18.07;100.00
63907;BME280;50075;49.484;11.238;2022-11-15T14:49:33;97165.50;;;17.80;100.00
63907;BME280;50075;49.484;11.238;2022-11-15T14:51:59;97160.72;;;17.53;100.00
63907;BME280;50075;49.484;11.238;2022-11-15T14:54:24;97166.13;;;17.19;100.00
63907;BME280;50075;49.484;11.238;2022-11-15T14:56:49;97159.47;;;16.92;100.00
63907;BME280;50075;49.484;11.238;2022-11-15T14:59:15;97171.34;;;16.87;100.00
63907;BME280;50075;49.484;11.238;2022-11-15T15:01:40;97166.56;;;16.69;100.00
63907;BME280;50075;49.484;11.238;2022-11-15T15:04:05;97161.31;;;16.69;100.00
63907;BME280;50075;49.484;11.238;2022-11-15T15:06:31;97160.97;;;16.40;100.00